createdAt,value
2023-01-28T00:07:12.973Z,3.80
2023-01-28T00:22:15.382Z,3.60
2023-01-28T00:37:17.842Z,3.60
2023-01-28T00:52:20.195Z,3.50
2023-01-28T01:07:32.075Z,3.30
2023-01-28T01:22:36.495Z,3.30
2023-01-28T01:37:38.865Z,3.20
2023-01-28T01:52:42.587Z,3.50
2023-01-28T02:07:47.364Z,3.90
2023-01-28T02:23:42.091Z,4.40
2023-01-28T02:38:50.596Z,3.80
2023-01-28T02:54:26.889Z,3.90
2023-01-28T03:09:32.092Z,3.50
2023-01-28T03:25:01.086Z,3.30
2023-01-28T03:40:08.194Z,2.70
2023-01-28T03:55:14.410Z,2.50
2023-01-28T04:10:18.840Z,2.70
2023-01-28T04:25:29.500Z,2.90
2023-01-28T04:40:32.173Z,2.70
2023-01-28T04:55:40.295Z,2.70
2023-01-28T05:10:42.865Z,2.50
2023-01-28T05:25:45.807Z,2.10
2023-01-28T05:40:48.634Z,2.20
2023-01-28T05:55:53.364Z,2.30
2023-01-28T06:10:56.146Z,2.90
2023-01-28T06:26:00.289Z,2.30
2023-01-28T06:41:04.667Z,2.40
2023-01-28T06:56:08.462Z,2.10
2023-01-28T07:11:11.248Z,2.80
2023-01-28T07:26:13.992Z,2.70
2023-01-28T07:41:16.448Z,2.60
2023-01-28T07:56:18.716Z,2.40
2023-01-28T08:11:21.660Z,2.20
2023-01-28T08:26:24.037Z,2.10
2023-01-28T08:41:26.543Z,2.10
2023-01-28T08:56:30.945Z,2.00
2023-01-28T09:11:33.443Z,2.00
2023-01-28T09:26:35.741Z,2.30
2023-01-28T09:42:22.608Z,2.00
2023-01-28T09:57:29.950Z,1.90
2023-01-28T10:12:43.594Z,2.10
2023-01-28T10:27:49.326Z,1.80
2023-01-28T10:42:51.799Z,1.80
2023-01-28T10:57:54.743Z,1.90
2023-01-28T11:12:58.932Z,2.40
2023-01-28T11:28:05.192Z,2.00
2023-01-28T11:43:09.051Z,1.90
2023-01-28T11:58:37.453Z,1.80
2023-01-28T12:14:07.106Z,2.00
2023-01-28T12:29:35.285Z,2.00
2023-01-28T12:45:16.424Z,2.10
2023-01-28T13:00:39.407Z,1.90
2023-01-28T13:15:43.910Z,1.40
2023-01-28T13:30:49.647Z,1.80
2023-01-28T13:46:04.403Z,2.70
2023-01-28T14:01:44.268Z,2.90
2023-01-28T14:16:58.269Z,2.50
2023-01-28T14:32:06.507Z,2.50
2023-01-28T14:47:41.950Z,2.20
2023-01-28T15:02:44.853Z,2.60
2023-01-28T15:17:49.581Z,3.20
2023-01-28T15:33:06.869Z,3.20
2023-01-28T15:48:12.216Z,3.50
2023-01-28T16:03:21.906Z,3.10
2023-01-28T16:18:35.255Z,3.40
2023-01-28T16:33:37.664Z,2.70
2023-01-28T16:48:40.084Z,2.50
2023-01-28T17:03:42.622Z,2.60
2023-01-28T17:18:46.325Z,2.60
2023-01-28T17:33:56.872Z,2.70
2023-01-28T17:48:59.205Z,3.20
2023-01-28T18:04:01.651Z,3.40
2023-01-28T18:19:06.165Z,3.50
2023-01-28T18:34:08.659Z,3.20
2023-01-28T18:49:11.181Z,3.20
2023-01-28T19:04:15.437Z,3.40
2023-01-28T19:19:18.203Z,3.20
2023-01-28T19:34:21.197Z,3.10
2023-01-28T19:49:23.889Z,3.00
2023-01-28T20:04:26.374Z,3.00
2023-01-28T20:19:28.903Z,3.00
2023-01-28T20:34:31.393Z,2.80
2023-01-28T20:49:34.318Z,2.70
2023-01-28T21:04:36.682Z,2.80
2023-01-28T21:19:39.147Z,2.60
2023-01-28T21:34:42.552Z,2.60
2023-01-28T21:49:45.140Z,2.70
2023-01-28T22:04:49.602Z,2.60
2023-01-28T22:19:52.086Z,2.60
2023-01-28T22:34:54.484Z,2.60
2023-01-28T22:49:57.016Z,2.30
2023-01-28T23:04:59.565Z,2.20
2023-01-28T23:20:21.111Z,2.10
2023-01-28T23:35:27.446Z,2.20
2023-01-28T23:50:29.867Z,2.20
